Terminal Aerodrome Forecast
Issued by NWS Cleveland, OH

Home | Current Version | Previous Version | Text Only | Print | Product List | Glossary Off
Versions: 1 2 3 4 5 6 7 8 9 10 11 12 13 14 15 16

000
FTUS41 KCLE 211548 AAA
TAFYNG
TAF AMD
KYNG 211548Z 2116/2212 17012KT 6SM -SHRA BKN020 OVC060
      TEMPO 2116/2119 5SM -SHRA OVC018
     FM212100 19012KT P6SM OVC025
     FM220100 22008KT P6SM VCTS SCT012 OVC025CB
     FM220400 24008KT P6SM BKN035
     FM220800 24005KT 6SM BR BKN020=

USA.gov is the U.S. government's official web portal to all federal, state and local government web resources and services.